createdAt,value
2018-10-21T00:01:30.802Z,6.00
2018-10-21T00:03:59.065Z,5.90
2018-10-21T00:06:27.304Z,5.90
2018-10-21T00:08:55.560Z,5.90
2018-10-21T00:11:23.768Z,5.80
2018-10-21T00:13:52.027Z,5.70
2018-10-21T00:16:20.267Z,5.70
2018-10-21T00:18:49.298Z,5.60
2018-10-21T00:21:17.591Z,5.50
2018-10-21T00:23:45.772Z,5.50
2018-10-21T00:26:13.988Z,5.50
2018-10-21T00:28:42.184Z,5.50
2018-10-21T00:31:10.455Z,5.50
2018-10-21T00:33:39.464Z,5.50
2018-10-21T00:36:07.687Z,5.50
2018-10-21T00:38:35.955Z,5.50
2018-10-21T00:41:04.165Z,5.50
2018-10-21T00:43:33.182Z,5.50
2018-10-21T00:46:01.463Z,5.50
2018-10-21T00:48:29.675Z,5.50
2018-10-21T00:50:57.959Z,5.50
2018-10-21T00:53:26.179Z,5.50
2018-10-21T00:55:55.195Z,5.50
2018-10-21T00:58:23.451Z,5.50
2018-10-21T01:00:52.411Z,5.40
2018-10-21T01:03:20.610Z,5.30
2018-10-21T01:05:49.632Z,5.40
2018-10-21T01:08:17.881Z,5.40
2018-10-21T01:10:46.118Z,5.50
2018-10-21T01:13:14.338Z,5.50
2018-10-21T01:15:43.360Z,5.60
2018-10-21T01:18:11.564Z,5.50
2018-10-21T01:20:39.816Z,5.60
2018-10-21T01:23:08.027Z,5.60
2018-10-21T01:25:36.292Z,5.60
2018-10-21T01:28:04.535Z,5.60
2018-10-21T01:30:32.752Z,5.60
2018-10-21T01:33:01.855Z,5.70
2018-10-21T01:35:30.055Z,5.70
2018-10-21T01:37:59.198Z,5.70
2018-10-21T01:40:28.050Z,5.80
2018-10-21T01:42:57.025Z,5.80
2018-10-21T01:45:25.282Z,5.80
2018-10-21T01:47:53.486Z,5.80
2018-10-21T01:50:22.471Z,5.90
2018-10-21T01:52:50.726Z,5.90
2018-10-21T01:55:18.985Z,6.00
2018-10-21T01:57:47.188Z,6.00
2018-10-21T02:00:15.442Z,6.10
2018-10-21T02:02:43.674Z,6.10
2018-10-21T02:05:12.684Z,6.20
2018-10-21T02:07:40.934Z,6.20
2018-10-21T02:10:09.943Z,6.30
2018-10-21T02:12:38.958Z,6.30
2018-10-21T02:15:07.156Z,6.30
2018-10-21T02:17:35.404Z,6.30
2018-10-21T02:20:03.648Z,6.30
2018-10-21T02:22:31.864Z,6.40
2018-10-21T02:25:00.102Z,6.40
2018-10-21T02:27:28.376Z,6.50
2018-10-21T02:29:56.604Z,6.50
2018-10-21T02:32:24.890Z,6.50
2018-10-21T02:34:53.091Z,6.40
2018-10-21T02:37:21.351Z,6.50
2018-10-21T02:39:49.591Z,6.50
2018-10-21T02:42:17.852Z,6.50
2018-10-21T02:44:46.854Z,6.60
2018-10-21T02:47:15.876Z,6.60
2018-10-21T02:49:44.075Z,6.60
2018-10-21T02:52:12.340Z,6.70
2018-10-21T02:54:40.582Z,6.70
2018-10-21T02:57:09.639Z,6.80
2018-10-21T02:59:37.808Z,6.80
2018-10-21T03:02:06.054Z,6.80
2018-10-21T03:04:34.299Z,6.90
2018-10-21T03:07:03.406Z,6.90
2018-10-21T03:09:31.615Z,6.90
2018-10-21T03:11:59.811Z,7.00
2018-10-21T03:14:28.074Z,6.90
2018-10-21T03:16:56.275Z,7.00
2018-10-21T03:19:25.316Z,7.00
2018-10-21T03:21:53.560Z,7.00
2018-10-21T03:24:22.542Z,7.00
2018-10-21T03:26:51.551Z,6.90
2018-10-21T03:29:20.535Z,7.00
2018-10-21T03:31:49.507Z,6.90
2018-10-21T03:34:17.731Z,6.90
2018-10-21T03:36:45.970Z,6.90
2018-10-21T03:39:14.214Z,6.90
2018-10-21T03:41:42.420Z,6.90
2018-10-21T03:44:10.670Z,7.00
2018-10-21T03:46:38.871Z,7.00
2018-10-21T03:49:07.097Z,6.90
2018-10-21T03:51:35.357Z,6.90
2018-10-21T03:54:04.339Z,6.90
2018-10-21T03:56:33.308Z,6.90
2018-10-21T03:59:01.515Z,6.90
2018-10-21T04:01:29.769Z,6.80
2018-10-21T04:03:58.032Z,6.80
2018-10-21T04:06:26.228Z,6.90
2018-10-21T04:08:55.197Z,6.80
2018-10-21T04:11:23.466Z,6.80
2018-10-21T04:13:51.660Z,6.80
2018-10-21T04:16:19.879Z,6.80
2018-10-21T04:18:48.135Z,6.80
2018-10-21T04:21:17.167Z,6.70
2018-10-21T04:23:45.410Z,6.70
2018-10-21T04:26:14.390Z,6.60
2018-10-21T04:28:42.594Z,6.60
2018-10-21T04:31:10.834Z,6.60
2018-10-21T04:33:39.049Z,6.50
2018-10-21T04:36:07.265Z,6.40
2018-10-21T04:41:48.840Z,6.20
2018-10-21T04:44:17.041Z,6.20
2018-10-21T04:46:45.352Z,6.10
2018-10-21T04:49:13.557Z,6.10
2018-10-21T04:51:42.543Z,6.10
2018-10-21T04:54:11.504Z,5.90
2018-10-21T04:56:39.779Z,5.90
2018-10-21T04:59:07.960Z,5.90
2018-10-21T05:01:36.155Z,5.80
2018-10-21T05:04:05.198Z,5.60
2018-10-21T05:06:33.438Z,5.60
2018-10-21T05:09:02.451Z,5.60
2018-10-21T05:11:30.692Z,5.50
2018-10-21T05:13:58.914Z,5.50
2018-10-21T05:16:27.131Z,5.50
2018-10-21T05:18:55.338Z,5.50
2018-10-21T05:21:23.550Z,5.40
2018-10-21T05:23:51.843Z,5.40
2018-10-21T05:26:20.050Z,5.40
2018-10-21T05:28:49.033Z,5.30
2018-10-21T05:31:17.240Z,5.30
2018-10-21T05:33:45.514Z,5.30
2018-10-21T05:36:14.484Z,5.20
2018-10-21T05:38:42.704Z,5.20
2018-10-21T05:41:10.956Z,5.20
2018-10-21T05:43:39.936Z,5.10
2018-10-21T05:46:08.998Z,5.00
2018-10-21T05:48:37.189Z,5.00
2018-10-21T05:51:05.384Z,5.00
2018-10-21T05:53:34.404Z,4.80
2018-10-21T05:56:03.449Z,4.90
2018-10-21T05:58:31.714Z,4.80
2018-10-21T06:00:59.838Z,4.90
2018-10-21T06:03:28.848Z,4.90
2018-10-21T06:05:57.078Z,4.90
2018-10-21T06:08:25.346Z,4.90
2018-10-21T06:10:53.553Z,4.90
2018-10-21T06:13:22.520Z,4.90
2018-10-21T06:15:50.785Z,4.90
2018-10-21T06:18:18.948Z,5.00
2018-10-21T06:20:47.168Z,4.90
2018-10-21T06:23:16.140Z,5.00
2018-10-21T06:25:44.365Z,5.00
2018-10-21T06:28:12.610Z,5.10
2018-10-21T06:30:40.821Z,5.10
2018-10-21T06:33:09.093Z,5.10
2018-10-21T06:35:38.072Z,5.20
2018-10-21T06:38:07.050Z,5.30
2018-10-21T06:40:35.317Z,5.20
2018-10-21T06:43:03.560Z,5.30
2018-10-21T06:45:32.172Z,5.20
2018-10-21T06:48:01.060Z,5.30
2018-10-21T06:50:29.341Z,5.30
2018-10-21T06:52:57.580Z,5.20
2018-10-21T06:55:25.852Z,5.30
2018-10-21T06:57:54.100Z,5.30
2018-10-21T07:00:23.125Z,5.40
2018-10-21T07:02:51.376Z,5.40
2018-10-21T07:05:20.382Z,5.50
2018-10-21T07:07:48.657Z,5.50
2018-10-21T07:10:17.655Z,5.70
2018-10-21T07:12:46.626Z,5.80
2018-10-21T07:15:14.875Z,5.70
2018-10-21T07:17:43.101Z,5.80
2018-10-21T07:20:12.102Z,6.00
2018-10-21T07:22:40.344Z,6.00
2018-10-21T07:25:09.361Z,6.20
2018-10-21T07:27:37.624Z,6.20
2018-10-21T07:30:05.852Z,6.40
2018-10-21T07:32:34.874Z,6.60
2018-10-21T07:35:04.008Z,6.50
2018-10-21T07:37:33.028Z,6.80
2018-10-21T07:40:01.328Z,6.80
2018-10-21T07:42:30.299Z,7.00
2018-10-21T07:44:58.498Z,7.00
2018-10-21T07:47:27.568Z,7.20
2018-10-21T07:49:55.829Z,7.20
2018-10-21T07:52:24.026Z,7.30
2018-10-21T07:54:52.242Z,7.40
2018-10-21T07:57:20.453Z,7.60
2018-10-21T07:59:48.729Z,7.70
2018-10-21T08:02:16.984Z,7.80
2018-10-21T08:04:45.243Z,7.90
2018-10-21T08:10:21.147Z,8.20
2018-10-21T08:12:50.115Z,8.40
2018-10-21T08:15:18.420Z,8.40
2018-10-21T08:17:46.594Z,8.50
2018-10-21T08:20:15.620Z,8.70
2018-10-21T08:22:43.887Z,8.70
2018-10-21T08:25:12.167Z,8.90
2018-10-21T08:27:40.416Z,9.00
2018-10-21T08:30:09.439Z,9.20
2018-10-21T08:32:37.703Z,9.20
2018-10-21T08:35:06.713Z,9.40
2018-10-21T08:37:34.932Z,9.40
2018-10-21T08:40:03.172Z,9.50
2018-10-21T08:42:31.361Z,9.60
2018-10-21T08:44:59.611Z,9.70
2018-10-21T08:47:27.816Z,9.80
2018-10-21T08:49:56.893Z,10.10
2018-10-21T08:52:25.119Z,10.10
2018-10-21T08:54:53.326Z,10.20
2018-10-21T08:57:21.633Z,10.30
2018-10-21T08:59:49.858Z,10.40
2018-10-21T09:02:18.092Z,10.60
2018-10-21T09:04:46.360Z,10.70
2018-10-21T09:07:14.668Z,10.80
2018-10-21T09:09:42.825Z,10.90
2018-10-21T09:12:11.108Z,11.00
2018-10-21T09:14:39.356Z,11.10
2018-10-21T09:17:07.637Z,11.20
2018-10-21T09:19:35.906Z,11.40
2018-10-21T09:22:04.193Z,11.50
2018-10-21T09:24:33.261Z,11.70
2018-10-21T09:27:02.297Z,11.80
2018-10-21T09:29:30.510Z,11.80
2018-10-21T09:31:58.780Z,12.00
2018-10-21T09:34:27.336Z,12.10
2018-10-21T09:36:55.600Z,12.20
2018-10-21T09:39:23.867Z,12.30
2018-10-21T09:41:52.116Z,12.40
2018-10-21T09:44:21.156Z,12.60
2018-10-21T09:46:49.402Z,12.60
2018-10-21T09:49:17.737Z,12.70
2018-10-21T09:51:46.693Z,13.00
2018-10-21T09:54:14.916Z,13.00
2018-10-21T09:56:43.143Z,13.20
2018-10-21T09:59:11.360Z,13.30
2018-10-21T10:04:37.220Z,13.70
2018-10-21T10:07:06.305Z,14.00
2018-10-21T10:09:34.516Z,13.90
2018-10-21T10:12:02.763Z,14.20
2018-10-21T10:14:31.037Z,14.40
2018-10-21T10:17:00.078Z,14.80
2018-10-21T10:19:28.345Z,14.80
2018-10-21T10:21:56.654Z,15.00
2018-10-21T10:24:25.609Z,15.40
2018-10-21T10:26:53.879Z,15.30
2018-10-21T10:29:22.898Z,15.80
2018-10-21T10:31:51.182Z,15.80
2018-10-21T10:34:19.459Z,16.00
2018-10-21T10:36:47.716Z,16.30
2018-10-21T10:39:15.946Z,16.50
2018-10-21T10:41:44.270Z,16.70
2018-10-21T10:44:12.429Z,16.90
2018-10-21T10:46:41.424Z,17.30
2018-10-21T10:49:10.471Z,17.50
2018-10-21T10:51:39.444Z,17.80
2018-10-21T10:54:07.648Z,17.80
2018-10-21T10:56:35.898Z,18.00
2018-10-21T10:59:04.224Z,18.30
2018-10-21T11:01:32.479Z,18.40
2018-10-21T11:04:00.733Z,18.70
2018-10-21T11:06:29.713Z,19.20
2018-10-21T11:08:57.986Z,19.10
2018-10-21T11:11:26.224Z,19.40
2018-10-21T11:13:54.444Z,19.40
2018-10-21T11:16:22.713Z,19.30
2018-10-21T11:18:50.974Z,19.40
2018-10-21T11:21:19.955Z,19.30
2018-10-21T11:23:48.988Z,19.20
2018-10-21T11:26:17.240Z,19.20
2018-10-21T11:28:46.276Z,19.10
2018-10-21T11:31:14.585Z,19.00
2018-10-21T11:33:42.796Z,19.00
2018-10-21T11:36:11.818Z,18.60
2018-10-21T11:38:40.090Z,18.70
2018-10-21T11:41:08.383Z,18.50
2018-10-21T11:43:36.673Z,18.40
2018-10-21T11:46:05.559Z,18.40
2018-10-21T11:48:33.716Z,18.50
2018-10-21T11:51:01.961Z,18.70
2018-10-21T11:53:30.950Z,19.30
2018-10-21T11:55:59.974Z,19.70
2018-10-21T11:58:28.380Z,19.70
2018-10-21T12:00:56.697Z,20.20
2018-10-21T12:03:24.934Z,20.60
2018-10-21T12:05:53.153Z,21.10
2018-10-21T12:08:21.438Z,21.50
2018-10-21T12:10:50.457Z,22.40
2018-10-21T12:13:18.720Z,22.30
2018-10-21T12:15:47.729Z,23.10
2018-10-21T12:18:15.987Z,23.10
2018-10-21T12:20:44.258Z,23.20
2018-10-21T12:23:13.396Z,22.90
2018-10-21T12:25:42.337Z,22.60
2018-10-21T12:28:10.629Z,22.60
2018-10-21T12:30:38.751Z,22.40
2018-10-21T12:33:06.983Z,22.40
2018-10-21T12:35:35.235Z,22.50
2018-10-21T12:38:03.479Z,23.40
2018-10-21T12:40:31.684Z,24.50
2018-10-21T12:43:00.940Z,26.40
2018-10-21T12:45:29.196Z,26.30
2018-10-21T12:47:57.378Z,27.40
2018-10-21T12:50:25.598Z,28.20
2018-10-21T12:52:53.906Z,29.20
2018-10-21T12:55:22.871Z,29.90
2018-10-21T12:57:51.134Z,30.40
2018-10-21T13:00:19.348Z,30.30
2018-10-21T13:02:48.411Z,29.90
2018-10-21T13:05:16.622Z,29.80
2018-10-21T13:07:45.657Z,29.30
2018-10-21T13:10:13.979Z,29.30
2018-10-21T13:12:42.235Z,28.90
2018-10-21T13:15:10.480Z,28.60
2018-10-21T13:17:38.728Z,28.10
2018-10-21T13:20:07.712Z,27.10
2018-10-21T13:22:36.689Z,26.80
2018-10-21T13:25:05.031Z,26.80
2018-10-21T13:27:33.190Z,26.60
2018-10-21T13:30:01.405Z,26.70
2018-10-21T13:32:29.663Z,27.40
2018-10-21T13:34:57.895Z,27.90
2018-10-21T13:37:26.873Z,28.30
2018-10-21T13:39:55.174Z,28.20
2018-10-21T13:42:24.170Z,28.00
2018-10-21T13:44:52.449Z,27.90
2018-10-21T13:47:21.446Z,28.80
2018-10-21T13:49:49.747Z,28.70
2018-10-21T13:52:18.124Z,28.80
2018-10-21T13:54:46.252Z,28.40
2018-10-21T13:57:14.530Z,28.00
2018-10-21T13:59:42.779Z,27.30
2018-10-21T14:02:11.009Z,25.90
2018-10-21T14:04:39.212Z,25.40
2018-10-21T14:07:07.442Z,24.70
2018-10-21T14:09:36.473Z,24.20
2018-10-21T14:12:04.753Z,24.20
2018-10-21T14:14:33.008Z,23.40
2018-10-21T14:17:02.047Z,22.80
2018-10-21T14:19:30.267Z,22.80
2018-10-21T14:21:59.335Z,21.80
2018-10-21T14:24:27.631Z,21.70
2018-10-21T14:26:55.855Z,21.50
2018-10-21T14:29:24.074Z,21.10
2018-10-21T14:31:52.359Z,20.80
2018-10-21T14:34:21.388Z,20.50
2018-10-21T14:36:49.650Z,20.50
2018-10-21T14:39:18.751Z,20.30
2018-10-21T14:41:46.975Z,20.30
2018-10-21T14:44:15.251Z,20.20
2018-10-21T14:46:43.518Z,20.10
2018-10-21T14:49:11.782Z,20.00
2018-10-21T14:51:40.009Z,19.90
2018-10-21T14:54:09.103Z,19.60
2018-10-21T14:56:37.291Z,19.60
2018-10-21T14:59:06.285Z,19.30
2018-10-21T15:01:35.318Z,19.10
2018-10-21T15:04:03.569Z,19.10
2018-10-21T15:06:32.592Z,18.80
2018-10-21T15:09:00.873Z,18.80
2018-10-21T15:11:29.057Z,18.70
2018-10-21T15:13:57.287Z,18.50
2018-10-21T15:16:26.265Z,18.20
2018-10-21T15:18:55.300Z,18.10
2018-10-21T15:21:23.552Z,18.00
2018-10-21T15:23:52.543Z,17.70
2018-10-21T15:26:20.764Z,17.70
2018-10-21T15:28:48.991Z,17.70
2018-10-21T15:31:17.973Z,17.60
2018-10-21T15:33:46.210Z,17.60
2018-10-21T15:36:14.422Z,17.60
2018-10-21T15:38:43.415Z,17.40
2018-10-21T15:41:11.645Z,17.40
2018-10-21T15:43:39.911Z,17.40
2018-10-21T15:46:08.200Z,17.20
2018-10-21T15:48:36.428Z,17.10
2018-10-21T15:51:04.653Z,17.00
2018-10-21T15:53:32.889Z,16.90
2018-10-21T15:56:01.150Z,16.70
2018-10-21T15:58:29.397Z,16.50
2018-10-21T16:00:57.633Z,16.30
2018-10-21T16:03:25.855Z,16.20
2018-10-21T16:05:54.129Z,16.10
2018-10-21T16:08:22.345Z,15.90
2018-10-21T16:10:51.395Z,15.60
2018-10-21T16:13:19.615Z,15.60
2018-10-21T16:15:48.710Z,15.40
2018-10-21T16:18:16.896Z,15.30
2018-10-21T16:20:45.131Z,15.20
2018-10-21T16:23:13.368Z,15.00
2018-10-21T16:25:41.829Z,14.90
2018-10-21T16:28:09.926Z,14.70
2018-10-21T16:30:38.139Z,14.60
2018-10-21T16:33:06.372Z,14.50
2018-10-21T16:35:34.616Z,14.40
2018-10-21T16:38:03.135Z,14.10
2018-10-21T16:40:31.407Z,13.90
2018-10-21T16:42:59.671Z,13.80
2018-10-21T16:45:28.699Z,13.50
2018-10-21T16:47:56.986Z,13.50
2018-10-21T16:50:25.187Z,13.40
2018-10-21T16:52:53.748Z,13.30
2018-10-21T16:55:21.919Z,13.20
2018-10-21T16:57:50.149Z,13.00
2018-10-21T17:00:18.406Z,12.80
2018-10-21T17:02:46.587Z,12.70
2018-10-21T17:05:15.739Z,12.60
2018-10-21T17:07:43.911Z,12.60
2018-10-21T17:10:12.567Z,12.50
2018-10-21T17:12:40.411Z,12.50
2018-10-21T17:15:08.610Z,12.40
2018-10-21T17:17:36.889Z,12.40
2018-10-21T17:20:05.918Z,12.20
2018-10-21T17:22:34.186Z,12.20
2018-10-21T17:25:02.441Z,12.20
2018-10-21T17:27:30.622Z,12.10
2018-10-21T17:29:58.865Z,12.00
2018-10-21T17:32:27.134Z,12.00
2018-10-21T17:34:55.373Z,11.90
2018-10-21T17:37:23.604Z,11.90
2018-10-21T17:39:51.824Z,11.80
2018-10-21T17:42:20.082Z,11.70
2018-10-21T17:44:48.302Z,11.60
2018-10-21T17:47:16.580Z,11.50
2018-10-21T17:49:44.796Z,11.40
2018-10-21T17:52:13.069Z,11.30
2018-10-21T17:54:41.302Z,11.20
2018-10-21T17:57:09.574Z,11.10
2018-10-21T17:59:37.825Z,11.00
2018-10-21T18:02:06.098Z,10.90
2018-10-21T18:04:34.312Z,10.90
2018-10-21T18:07:02.583Z,10.80
2018-10-21T18:09:30.817Z,10.70
2018-10-21T18:11:59.073Z,10.60
2018-10-21T18:14:27.337Z,10.50
2018-10-21T18:16:55.547Z,10.50
2018-10-21T18:19:23.836Z,10.40
2018-10-21T18:21:52.098Z,10.40
2018-10-21T18:24:21.122Z,10.20
2018-10-21T18:26:49.348Z,10.10
2018-10-21T18:29:18.401Z,10.10
2018-10-21T18:31:46.625Z,10.00
2018-10-21T18:34:15.730Z,9.90
2018-10-21T18:36:44.727Z,9.80
2018-10-21T18:39:12.885Z,9.80
2018-10-21T18:41:41.868Z,9.60
2018-10-21T18:44:10.095Z,9.60
2018-10-21T18:46:38.305Z,9.50
2018-10-21T18:49:06.976Z,9.40
2018-10-21T18:51:35.182Z,9.30
2018-10-21T18:54:03.391Z,9.20
2018-10-21T18:56:31.614Z,9.10
2018-10-21T18:58:59.899Z,8.90
2018-10-21T19:01:28.164Z,8.80
2018-10-21T19:03:56.669Z,8.70
2018-10-21T19:06:25.478Z,8.40
2018-10-21T19:08:54.476Z,8.10
2018-10-21T19:11:23.557Z,8.10
2018-10-21T19:13:51.949Z,8.10
2018-10-21T19:16:20.141Z,8.10
2018-10-21T19:18:48.403Z,8.10
2018-10-21T19:21:16.598Z,8.10
2018-10-21T19:23:44.897Z,8.10
2018-10-21T19:26:13.910Z,8.10
2018-10-21T19:28:42.228Z,8.00
2018-10-21T19:31:10.520Z,8.00
2018-10-21T19:33:38.771Z,7.90
2018-10-21T19:36:07.029Z,7.90
2018-10-21T19:38:35.339Z,7.90
2018-10-21T19:41:03.626Z,7.90
2018-10-21T19:43:32.677Z,7.80
2018-10-21T19:46:00.914Z,7.80
2018-10-21T19:48:29.154Z,7.80
2018-10-21T19:50:57.369Z,7.80
2018-10-21T19:53:25.636Z,7.70
2018-10-21T19:55:54.604Z,7.70
2018-10-21T19:58:23.596Z,7.70
2018-10-21T20:00:52.622Z,7.70
2018-10-21T20:03:20.832Z,7.60
2018-10-21T20:05:49.092Z,7.70
2018-10-21T20:08:17.280Z,7.60
2018-10-21T20:10:45.522Z,7.50
2018-10-21T20:13:13.870Z,7.30
2018-10-21T20:15:42.024Z,7.30
2018-10-21T20:18:10.319Z,6.90
2018-10-21T20:20:38.568Z,6.90
2018-10-21T20:23:06.818Z,7.00
2018-10-21T20:25:35.074Z,7.00
2018-10-21T20:28:03.409Z,6.90
2018-10-21T20:30:31.634Z,6.80
2018-10-21T20:32:59.927Z,6.80
2018-10-21T20:35:28.070Z,6.80
2018-10-21T20:37:57.142Z,6.60
2018-10-21T20:40:25.331Z,6.60
2018-10-21T20:42:54.305Z,6.50
2018-10-21T20:45:22.539Z,6.50
2018-10-21T20:47:50.801Z,6.40
2018-10-21T20:50:19.009Z,6.40
2018-10-21T20:52:47.265Z,6.40
2018-10-21T20:55:15.482Z,6.40
2018-10-21T20:57:43.796Z,6.40
2018-10-21T21:00:12.051Z,6.30
2018-10-21T21:02:40.186Z,6.30
2018-10-21T21:05:08.407Z,6.30
2018-10-21T21:07:36.693Z,6.30
2018-10-21T21:10:04.883Z,6.10
2018-10-21T21:12:33.910Z,6.00
2018-10-21T21:15:02.122Z,6.00
2018-10-21T21:17:30.383Z,6.00
2018-10-21T21:19:58.583Z,6.00
2018-10-21T21:22:27.579Z,6.00
2018-10-21T21:24:56.548Z,5.90
2018-10-21T21:27:24.807Z,5.90
2018-10-21T21:29:53.017Z,5.80
2018-10-21T21:32:21.283Z,5.80
2018-10-21T21:34:49.503Z,5.80
2018-10-21T21:37:17.754Z,5.80
2018-10-21T21:39:46.117Z,5.70
2018-10-21T21:42:14.483Z,5.60
2018-10-21T21:44:42.592Z,5.60
2018-10-21T21:47:11.637Z,5.50
2018-10-21T21:49:39.996Z,5.50
2018-10-21T21:52:08.241Z,5.50
2018-10-21T21:54:36.426Z,5.50
2018-10-21T21:57:04.713Z,5.50
2018-10-21T21:59:32.916Z,5.40
2018-10-21T22:02:01.152Z,5.30
2018-10-21T22:04:29.356Z,5.20
2018-10-21T22:06:57.606Z,5.20
2018-10-21T22:09:26.637Z,5.20
2018-10-21T22:11:54.868Z,5.20
2018-10-21T22:14:23.075Z,5.10
2018-10-21T22:16:51.331Z,5.10
2018-10-21T22:19:20.314Z,4.90
2018-10-21T22:21:49.284Z,4.90
2018-10-21T22:24:17.611Z,4.90
2018-10-21T22:26:45.778Z,4.90
2018-10-21T22:29:14.028Z,4.80
2018-10-21T22:31:42.311Z,4.70
2018-10-21T22:34:10.602Z,4.50
2018-10-21T22:36:38.744Z,4.40
2018-10-21T22:39:06.964Z,4.40
2018-10-21T22:41:36.003Z,4.30
2018-10-21T22:44:04.183Z,4.30
2018-10-21T22:46:32.526Z,4.30
2018-10-21T22:49:02.258Z,4.30
2018-10-21T22:51:30.501Z,4.30
2018-10-21T22:53:58.781Z,4.30
2018-10-21T22:56:26.959Z,4.10
2018-10-21T22:58:56.000Z,4.10
2018-10-21T23:01:24.216Z,4.10
2018-10-21T23:03:53.203Z,4.10
2018-10-21T23:06:21.444Z,4.10
2018-10-21T23:08:49.710Z,4.10
2018-10-21T23:11:17.957Z,4.10
2018-10-21T23:13:46.984Z,3.90
2018-10-21T23:16:15.967Z,3.90
2018-10-21T23:18:44.312Z,3.80
2018-10-21T23:21:12.423Z,3.80
2018-10-21T23:23:40.624Z,3.80
2018-10-21T23:26:08.900Z,3.80
2018-10-21T23:28:37.142Z,3.80
2018-10-21T23:31:05.357Z,3.80
2018-10-21T23:33:33.562Z,3.90
2018-10-21T23:36:02.607Z,3.90
2018-10-21T23:38:30.823Z,3.90
2018-10-21T23:40:59.063Z,3.90
2018-10-21T23:43:27.277Z,3.80
2018-10-21T23:45:55.490Z,3.80
2018-10-21T23:48:23.708Z,3.80
2018-10-21T23:50:51.965Z,3.70
2018-10-21T23:53:20.250Z,3.70
2018-10-21T23:55:48.446Z,3.60
2018-10-21T23:58:16.740Z,3.50
